Strona główna
METAR-TAF:

METAR-TAF

Lotnisko :

Port lotniczy Kerman

Kerman, Iran

Szerokość geograficzna: 30-15N, Długość geograficzna: 056-58E, wysokość: 1748 m

Aktualna obserwacja pogody

Raport powstał 56 minut temu, godzina 01:00 UTC
Cisza
Temperatura 19°C
Wilgotność 14%
Ciśnienie 1018 hPa
Widzialność 10 km lub więcej
Brak chmur poniżej 1500 m i brak chmur cumulonimbus

METAR: OIKK 260100Z 00000KT CAVOK 19/M09 Q1018 A3007

czas: 06:26 (01:56 UTC)

Prognoza

Raport powstał 2 godziny i 26 minut temu, godzina 23:30 UTC
Prognoza ważna od 26 godzina 00 UTC do 27 godzina 06 UTC
Wiatr 8 kt od północ
Widzialność: 7000 m
Przejściowo
od 26 godzina 09 UTC do 26 godzina 15 UTC
Wiatr 16 kt od wschodnio-północny wschód

TAF: OIKK 252330Z 2600/2706 35008KT 7000 NSC TEMPO 2609/2615 06016KT

Obserwacja i prognoza pogody dla ponad 4000 lotnisk (raport METAR i TAF).

Dostępne stacje oznaczono żółtymi i czerwonymi punktami na mapie.

Najedź kursorem aby zobaczyć nazwę stacji.

Kliknij aby zobaczyć obserwacje i prognozy pogody.

Aby zmienić mapę: kliknij na zielony przycisk z czarnym krzyżykiem, aby powiększyć; na zielony przycisk z myślnikiem, aby pomniejszyć; na zielone strzałki, aby przejść do map sąsiednich.


METAR-TAF: